X  Cerrar Datos meteorológicos de aviación METAR     LGRX Patras Araxos Agamemnon Airport
Temperatura
22°C Temperatura
8°C Punto de rocío
41% Humedad



Viento
14 KM/H
9 MPH
4 M/S
8 NUDO



20°
NNE
Condiciones actuales

Claro Claro
Presión 1023.92 (hPa) - 30.24 (inHg)
Visibilidad 6.2 (milla) - 10 (km)
Aeropuerto
Código de aeropuerto LGRX

localidad: Patras Araxos Agamemnon Airport
Distancia: 108 (km)

Metar:
LGRX 060720Z 02008KT CAVOK 22/08 Q1024

Hora: 06-10-2022 10:20 EEST